sensor_id;sensor_type;location;lat;lon;timestamp;P1;durP1;ratioP1;P2;durP2;ratioP2
41480;SDS011;27217;51.220;5.308;2023-11-19T00:00:37;1.77;;;1.15;;
41480;SDS011;27217;51.220;5.308;2023-11-19T00:03:02;0.30;;;0.30;;
41480;SDS011;27217;51.220;5.308;2023-11-19T00:05:28;0.08;;;0.08;;
41480;SDS011;27217;51.220;5.308;2023-11-19T00:07:54;0.00;;;0.00;;
41480;SDS011;27217;51.220;5.308;2023-11-19T00:10:20;0.10;;;0.10;;
41480;SDS011;27217;51.220;5.308;2023-11-19T00:12:49;0.38;;;0.38;;
41480;SDS011;27217;51.220;5.308;2023-11-19T00:15:15;0.00;;;0.00;;
41480;SDS011;27217;51.220;5.308;2023-11-19T00:17:44;0.10;;;0.10;;
41480;SDS011;27217;51.220;5.308;2023-11-19T00:20:11;1.17;;;0.35;;
41480;SDS011;27217;51.220;5.308;2023-11-19T00:22:37;0.00;;;0.00;;
41480;SDS011;27217;51.220;5.308;2023-11-19T00:25:03;0.00;;;0.00;;
41480;SDS011;27217;51.220;5.308;2023-11-19T00:27:30;0.00;;;0.00;;
41480;SDS011;27217;51.220;5.308;2023-11-19T00:29:56;0.00;;;0.00;;
41480;SDS011;27217;51.220;5.308;2023-11-19T00:32:22;0.00;;;0.00;;
41480;SDS011;27217;51.220;5.308;2023-11-19T00:34:48;0.45;;;0.17;;
41480;SDS011;27217;51.220;5.308;2023-11-19T00:37:14;0.00;;;0.00;;
41480;SDS011;27217;51.220;5.308;2023-11-19T00:39:41;0.10;;;0.10;;
41480;SDS011;27217;51.220;5.308;2023-11-19T00:42:07;0.00;;;0.00;;
41480;SDS011;27217;51.220;5.308;2023-11-19T00:44:32;0.82;;;0.43;;
41480;SDS011;27217;51.220;5.308;2023-11-19T00:46:58;0.00;;;0.00;;
41480;SDS011;27217;51.220;5.308;2023-11-19T00:49:25;0.47;;;0.47;;
41480;SDS011;27217;51.220;5.308;2023-11-19T00:51:51;0.00;;;0.00;;
41480;SDS011;27217;51.220;5.308;2023-11-19T00:54:16;0.00;;;0.00;;
41480;SDS011;27217;51.220;5.308;2023-11-19T00:56:42;0.30;;;0.30;;
41480;SDS011;27217;51.220;5.308;2023-11-19T00:59:08;0.00;;;0.00;;
41480;SDS011;27217;51.220;5.308;2023-11-19T01:01:33;0.20;;;0.20;;
41480;SDS011;27217;51.220;5.308;2023-11-19T01:03:59;0.10;;;0.10;;
41480;SDS011;27217;51.220;5.308;2023-11-19T01:06:28;0.00;;;0.00;;
41480;SDS011;27217;51.220;5.308;2023-11-19T01:08:55;0.38;;;0.38;;
41480;SDS011;27217;51.220;5.308;2023-11-19T01:11:22;0.00;;;0.00;;
41480;SDS011;27217;51.220;5.308;2023-11-19T01:13:48;0.00;;;0.00;;
41480;SDS011;27217;51.220;5.308;2023-11-19T01:16:15;1.35;;;0.75;;
41480;SDS011;27217;51.220;5.308;2023-11-19T01:18:41;0.10;;;0.10;;
41480;SDS011;27217;51.220;5.308;2023-11-19T01:21:06;0.00;;;0.00;;
41480;SDS011;27217;51.220;5.308;2023-11-19T01:23:32;0.00;;;0.00;;
41480;SDS011;27217;51.220;5.308;2023-11-19T01:25:59;0.00;;;0.00;;
41480;SDS011;27217;51.220;5.308;2023-11-19T01:28:24;0.00;;;0.00;;
41480;SDS011;27217;51.220;5.308;2023-11-19T01:30:50;0.20;;;0.20;;
41480;SDS011;27217;51.220;5.308;2023-11-19T01:33:16;1.50;;;1.00;;
41480;SDS011;27217;51.220;5.308;2023-11-19T01:35:42;0.00;;;0.00;;
41480;SDS011;27217;51.220;5.308;2023-11-19T01:38:08;0.00;;;0.00;;
41480;SDS011;27217;51.220;5.308;2023-11-19T01:40:33;0.13;;;0.10;;
41480;SDS011;27217;51.220;5.308;2023-11-19T01:43:01;0.00;;;0.00;;
41480;SDS011;27217;51.220;5.308;2023-11-19T01:45:28;5.35;;;1.88;;
41480;SDS011;27217;51.220;5.308;2023-11-19T01:47:59;0.45;;;0.40;;
41480;SDS011;27217;51.220;5.308;2023-11-19T01:50:26;0.43;;;0.43;;
41480;SDS011;27217;51.220;5.308;2023-11-19T01:52:53;0.00;;;0.00;;
41480;SDS011;27217;51.220;5.308;2023-11-19T01:55:20;19.05;;;3.30;;
41480;SDS011;27217;51.220;5.308;2023-11-19T01:57:47;0.52;;;0.52;;
41480;SDS011;27217;51.220;5.308;2023-11-19T02:00:14;0.25;;;0.17;;
41480;SDS011;27217;51.220;5.308;2023-11-19T02:02:41;0.20;;;0.20;;
41480;SDS011;27217;51.220;5.308;2023-11-19T02:05:12;0.90;;;0.43;;
41480;SDS011;27217;51.220;5.308;2023-11-19T02:07:38;0.00;;;0.00;;
41480;SDS011;27217;51.220;5.308;2023-11-19T02:10:05;0.00;;;0.00;;
41480;SDS011;27217;51.220;5.308;2023-11-19T02:12:34;0.00;;;0.00;;
41480;SDS011;27217;51.220;5.308;2023-11-19T02:15:01;0.28;;;0.28;;
41480;SDS011;27217;51.220;5.308;2023-11-19T02:17:28;0.08;;;0.08;;
41480;SDS011;27217;51.220;5.308;2023-11-19T02:19:56;0.15;;;0.15;;
41480;SDS011;27217;51.220;5.308;2023-11-19T02:22:23;6.22;;;2.10;;
41480;SDS011;27217;51.220;5.308;2023-11-19T02:24:49;0.10;;;0.10;;
41480;SDS011;27217;51.220;5.308;2023-11-19T02:30:24;0.00;;;0.00;;
41480;SDS011;27217;51.220;5.308;2023-11-19T02:32:57;0.20;;;0.20;;
41480;SDS011;27217;51.220;5.308;2023-11-19T02:35:30;0.00;;;0.00;;
41480;SDS011;27217;51.220;5.308;2023-11-19T02:37:57;2.08;;;1.30;;
41480;SDS011;27217;51.220;5.308;2023-11-19T02:42:54;0.30;;;0.30;;
41480;SDS011;27217;51.220;5.308;2023-11-19T02:45:22;0.00;;;0.00;;
41480;SDS011;27217;51.220;5.308;2023-11-19T02:47:48;0.55;;;0.55;;
41480;SDS011;27217;51.220;5.308;2023-11-19T02:50:14;1.88;;;1.08;;
41480;SDS011;27217;51.220;5.308;2023-11-19T02:52:41;0.00;;;0.00;;
41480;SDS011;27217;51.220;5.308;2023-11-19T02:55:07;0.00;;;0.00;;
41480;SDS011;27217;51.220;5.308;2023-11-19T02:57:40;3.10;;;1.95;;
41480;SDS011;27217;51.220;5.308;2023-11-19T03:00:18;8.90;;;1.75;;
41480;SDS011;27217;51.220;5.308;2023-11-19T03:02:48;0.77;;;0.77;;
41480;SDS011;27217;51.220;5.308;2023-11-19T03:05:23;1.55;;;0.80;;
41480;SDS011;27217;51.220;5.308;2023-11-19T03:07:50;1.55;;;0.63;;
41480;SDS011;27217;51.220;5.308;2023-11-19T03:10:15;6.95;;;2.78;;
41480;SDS011;27217;51.220;5.308;2023-11-19T03:12:42;7.20;;;2.47;;
41480;SDS011;27217;51.220;5.308;2023-11-19T03:15:09;0.10;;;0.10;;
41480;SDS011;27217;51.220;5.308;2023-11-19T03:17:38;1.10;;;0.98;;
41480;SDS011;27217;51.220;5.308;2023-11-19T03:20:05;7.38;;;3.05;;
41480;SDS011;27217;51.220;5.308;2023-11-19T03:22:34;28.98;;;3.70;;
41480;SDS011;27217;51.220;5.308;2023-11-19T03:25:03;27.15;;;5.45;;
41480;SDS011;27217;51.220;5.308;2023-11-19T03:27:29;28.95;;;4.68;;
41480;SDS011;27217;51.220;5.308;2023-11-19T03:29:55;28.85;;;3.80;;
41480;SDS011;27217;51.220;5.308;2023-11-19T03:32:20;25.33;;;4.43;;
41480;SDS011;27217;51.220;5.308;2023-11-19T03:34:46;28.08;;;4.00;;
41480;SDS011;27217;51.220;5.308;2023-11-19T03:37:12;36.50;;;4.45;;
41480;SDS011;27217;51.220;5.308;2023-11-19T03:39:41;31.23;;;4.90;;
41480;SDS011;27217;51.220;5.308;2023-11-19T03:42:07;40.28;;;4.80;;
41480;SDS011;27217;51.220;5.308;2023-11-19T03:44:32;29.63;;;3.35;;
41480;SDS011;27217;51.220;5.308;2023-11-19T03:46:58;38.67;;;5.85;;
41480;SDS011;27217;51.220;5.308;2023-11-19T03:49:24;33.55;;;4.75;;
41480;SDS011;27217;51.220;5.308;2023-11-19T03:51:49;21.25;;;3.72;;
41480;SDS011;27217;51.220;5.308;2023-11-19T03:54:15;33.97;;;5.28;;
41480;SDS011;27217;51.220;5.308;2023-11-19T03:56:41;30.67;;;4.50;;
41480;SDS011;27217;51.220;5.308;2023-11-19T03:59:06;30.90;;;5.10;;
41480;SDS011;27217;51.220;5.308;2023-11-19T04:01:34;41.42;;;4.95;;
41480;SDS011;27217;51.220;5.308;2023-11-19T04:04:00;30.55;;;5.28;;
41480;SDS011;27217;51.220;5.308;2023-11-19T04:06:26;29.42;;;3.78;;
41480;SDS011;27217;51.220;5.308;2023-11-19T04:08:52;23.42;;;3.95;;
41480;SDS011;27217;51.220;5.308;2023-11-19T04:11:17;34.10;;;5.68;;
41480;SDS011;27217;51.220;5.308;2023-11-19T04:13:43;38.55;;;5.95;;
41480;SDS011;27217;51.220;5.308;2023-11-19T04:16:09;24.45;;;3.80;;
41480;SDS011;27217;51.220;5.308;2023-11-19T04:18:34;27.10;;;4.68;;
41480;SDS011;27217;51.220;5.308;2023-11-19T04:21:00;37.53;;;4.80;;
41480;SDS011;27217;51.220;5.308;2023-11-19T04:23:26;30.17;;;3.70;;
41480;SDS011;27217;51.220;5.308;2023-11-19T04:25:52;36.42;;;4.00;;
41480;SDS011;27217;51.220;5.308;2023-11-19T04:28:17;26.88;;;3.65;;
41480;SDS011;27217;51.220;5.308;2023-11-19T04:30:43;21.35;;;4.22;;
41480;SDS011;27217;51.220;5.308;2023-11-19T04:33:09;35.88;;;4.68;;
41480;SDS011;27217;51.220;5.308;2023-11-19T04:35:35;30.48;;;4.75;;
41480;SDS011;27217;51.220;5.308;2023-11-19T04:38:01;34.45;;;4.32;;
41480;SDS011;27217;51.220;5.308;2023-11-19T04:40:27;39.65;;;3.90;;
41480;SDS011;27217;51.220;5.308;2023-11-19T04:42:52;37.25;;;4.40;;
41480;SDS011;27217;51.220;5.308;2023-11-19T04:45:21;36.60;;;5.72;;
41480;SDS011;27217;51.220;5.308;2023-11-19T04:47:47;32.67;;;5.35;;
41480;SDS011;27217;51.220;5.308;2023-11-19T04:50:12;31.27;;;4.13;;
41480;SDS011;27217;51.220;5.308;2023-11-19T04:52:38;26.70;;;4.07;;
41480;SDS011;27217;51.220;5.308;2023-11-19T04:55:10;38.85;;;4.97;;
41480;SDS011;27217;51.220;5.308;2023-11-19T04:57:39;23.88;;;3.78;;
41480;SDS011;27217;51.220;5.308;2023-11-19T05:00:05;39.03;;;4.35;;
41480;SDS011;27217;51.220;5.308;2023-11-19T05:02:32;34.25;;;5.22;;
41480;SDS011;27217;51.220;5.308;2023-11-19T05:04:59;36.63;;;5.60;;
41480;SDS011;27217;51.220;5.308;2023-11-19T05:07:26;31.48;;;4.70;;
41480;SDS011;27217;51.220;5.308;2023-11-19T05:09:51;31.42;;;5.43;;
41480;SDS011;27217;51.220;5.308;2023-11-19T05:12:17;42.35;;;5.55;;
41480;SDS011;27217;51.220;5.308;2023-11-19T05:14:43;21.45;;;3.85;;
41480;SDS011;27217;51.220;5.308;2023-11-19T05:17:14;40.15;;;4.78;;
41480;SDS011;27217;51.220;5.308;2023-11-19T05:19:40;44.30;;;4.95;;
41480;SDS011;27217;51.220;5.308;2023-11-19T05:22:06;37.95;;;6.35;;
41480;SDS011;27217;51.220;5.308;2023-11-19T05:24:32;42.13;;;4.85;;
41480;SDS011;27217;51.220;5.308;2023-11-19T05:26:58;24.95;;;3.80;;
41480;SDS011;27217;51.220;5.308;2023-11-19T05:29:24;32.75;;;4.90;;
41480;SDS011;27217;51.220;5.308;2023-11-19T05:31:49;34.25;;;5.22;;
41480;SDS011;27217;51.220;5.308;2023-11-19T05:34:15;38.45;;;4.30;;
41480;SDS011;27217;51.220;5.308;2023-11-19T05:36:41;45.75;;;5.10;;
41480;SDS011;27217;51.220;5.308;2023-11-19T05:39:06;34.60;;;5.40;;
41480;SDS011;27217;51.220;5.308;2023-11-19T05:41:32;33.92;;;4.65;;
41480;SDS011;27217;51.220;5.308;2023-11-19T05:43:58;40.55;;;4.88;;
41480;SDS011;27217;51.220;5.308;2023-11-19T05:46:23;41.72;;;4.32;;
41480;SDS011;27217;51.220;5.308;2023-11-19T05:48:50;41.47;;;4.93;;
41480;SDS011;27217;51.220;5.308;2023-11-19T05:51:17;36.28;;;6.20;;
41480;SDS011;27217;51.220;5.308;2023-11-19T05:53:43;29.50;;;4.95;;
41480;SDS011;27217;51.220;5.308;2023-11-19T05:56:10;26.48;;;4.75;;
41480;SDS011;27217;51.220;5.308;2023-11-19T05:58:36;34.60;;;4.97;;
41480;SDS011;27217;51.220;5.308;2023-11-19T06:01:02;35.05;;;6.05;;
41480;SDS011;27217;51.220;5.308;2023-11-19T06:03:29;33.90;;;4.43;;
41480;SDS011;27217;51.220;5.308;2023-11-19T06:05:55;35.97;;;4.45;;
41480;SDS011;27217;51.220;5.308;2023-11-19T06:08:20;40.22;;;5.43;;
41480;SDS011;27217;51.220;5.308;2023-11-19T06:10:46;26.05;;;4.25;;
41480;SDS011;27217;51.220;5.308;2023-11-19T06:13:15;35.13;;;5.68;;
41480;SDS011;27217;51.220;5.308;2023-11-19T06:15:41;36.88;;;5.97;;
41480;SDS011;27217;51.220;5.308;2023-11-19T06:18:07;41.47;;;4.90;;
41480;SDS011;27217;51.220;5.308;2023-11-19T06:20:33;41.58;;;6.15;;
41480;SDS011;27217;51.220;5.308;2023-11-19T06:22:59;28.13;;;4.60;;
41480;SDS011;27217;51.220;5.308;2023-11-19T06:25:25;41.70;;;5.65;;
41480;SDS011;27217;51.220;5.308;2023-11-19T06:27:51;40.17;;;4.85;;
41480;SDS011;27217;51.220;5.308;2023-11-19T06:30:18;34.05;;;4.13;;
41480;SDS011;27217;51.220;5.308;2023-11-19T06:32:44;44.33;;;5.57;;
41480;SDS011;27217;51.220;5.308;2023-11-19T06:35:10;27.98;;;4.63;;
41480;SDS011;27217;51.220;5.308;2023-11-19T06:37:38;41.25;;;5.93;;
41480;SDS011;27217;51.220;5.308;2023-11-19T06:40:05;39.35;;;5.32;;
41480;SDS011;27217;51.220;5.308;2023-11-19T06:42:31;38.10;;;6.32;;
41480;SDS011;27217;51.220;5.308;2023-11-19T06:44:57;38.80;;;5.97;;
41480;SDS011;27217;51.220;5.308;2023-11-19T06:47:28;28.33;;;5.07;;
41480;SDS011;27217;51.220;5.308;2023-11-19T06:49:54;33.92;;;5.90;;
41480;SDS011;27217;51.220;5.308;2023-11-19T06:52:20;38.88;;;5.28;;
41480;SDS011;27217;51.220;5.308;2023-11-19T06:54:46;47.85;;;6.80;;
41480;SDS011;27217;51.220;5.308;2023-11-19T06:57:12;45.15;;;4.53;;
41480;SDS011;27217;51.220;5.308;2023-11-19T06:59:38;47.85;;;5.40;;
41480;SDS011;27217;51.220;5.308;2023-11-19T07:02:04;34.63;;;5.15;;
41480;SDS011;27217;51.220;5.308;2023-11-19T07:04:31;39.10;;;4.47;;
41480;SDS011;27217;51.220;5.308;2023-11-19T07:06:58;44.67;;;6.00;;
41480;SDS011;27217;51.220;5.308;2023-11-19T07:09:24;43.58;;;5.60;;
41480;SDS011;27217;51.220;5.308;2023-11-19T07:11:50;35.60;;;5.85;;
41480;SDS011;27217;51.220;5.308;2023-11-19T07:14:17;41.58;;;6.38;;
41480;SDS011;27217;51.220;5.308;2023-11-19T07:16:43;45.42;;;6.03;;
41480;SDS011;27217;51.220;5.308;2023-11-19T07:19:08;40.28;;;5.50;;
41480;SDS011;27217;51.220;5.308;2023-11-19T07:21:34;44.35;;;6.97;;
41480;SDS011;27217;51.220;5.308;2023-11-19T07:24:04;45.08;;;6.10;;
41480;SDS011;27217;51.220;5.308;2023-11-19T07:26:30;27.60;;;4.78;;
41480;SDS011;27217;51.220;5.308;2023-11-19T07:28:56;35.38;;;4.82;;
41480;SDS011;27217;51.220;5.308;2023-11-19T07:31:23;47.80;;;6.70;;
41480;SDS011;27217;51.220;5.308;2023-11-19T07:33:49;37.17;;;6.85;;
41480;SDS011;27217;51.220;5.308;2023-11-19T07:36:15;44.33;;;5.55;;
41480;SDS011;27217;51.220;5.308;2023-11-19T07:38:41;34.88;;;4.82;;
41480;SDS011;27217;51.220;5.308;2023-11-19T07:41:07;34.90;;;4.55;;
41480;SDS011;27217;51.220;5.308;2023-11-19T07:43:38;37.10;;;4.53;;
41480;SDS011;27217;51.220;5.308;2023-11-19T07:46:10;39.47;;;5.50;;
41480;SDS011;27217;51.220;5.308;2023-11-19T07:48:37;39.05;;;5.10;;
41480;SDS011;27217;51.220;5.308;2023-11-19T07:51:04;37.50;;;5.07;;
41480;SDS011;27217;51.220;5.308;2023-11-19T07:53:29;46.05;;;5.07;;
41480;SDS011;27217;51.220;5.308;2023-11-19T07:55:55;38.35;;;5.38;;
41480;SDS011;27217;51.220;5.308;2023-11-19T07:58:21;37.58;;;4.38;;
41480;SDS011;27217;51.220;5.308;2023-11-19T08:00:46;37.72;;;4.90;;
41480;SDS011;27217;51.220;5.308;2023-11-19T08:03:12;40.90;;;5.47;;
41480;SDS011;27217;51.220;5.308;2023-11-19T08:05:38;34.60;;;5.22;;
41480;SDS011;27217;51.220;5.308;2023-11-19T08:08:04;40.50;;;5.97;;
41480;SDS011;27217;51.220;5.308;2023-11-19T08:10:30;49.05;;;5.72;;
41480;SDS011;27217;51.220;5.308;2023-11-19T08:12:55;39.88;;;4.65;;
41480;SDS011;27217;51.220;5.308;2023-11-19T08:15:21;36.38;;;5.28;;
41480;SDS011;27217;51.220;5.308;2023-11-19T08:17:47;45.95;;;6.40;;
41480;SDS011;27217;51.220;5.308;2023-11-19T08:20:12;37.65;;;5.30;;
41480;SDS011;27217;51.220;5.308;2023-11-19T08:22:38;36.65;;;5.13;;
41480;SDS011;27217;51.220;5.308;2023-11-19T08:25:07;36.85;;;4.38;;
41480;SDS011;27217;51.220;5.308;2023-11-19T08:27:33;40.50;;;5.18;;
41480;SDS011;27217;51.220;5.308;2023-11-19T08:29:59;32.10;;;3.95;;
41480;SDS011;27217;51.220;5.308;2023-11-19T08:32:25;36.55;;;4.85;;
41480;SDS011;27217;51.220;5.308;2023-11-19T08:34:51;45.47;;;5.30;;
41480;SDS011;27217;51.220;5.308;2023-11-19T08:37:17;39.00;;;5.82;;
41480;SDS011;27217;51.220;5.308;2023-11-19T08:39:45;45.80;;;4.78;;
41480;SDS011;27217;51.220;5.308;2023-11-19T08:42:11;41.50;;;6.25;;
41480;SDS011;27217;51.220;5.308;2023-11-19T08:44:37;45.28;;;6.40;;
41480;SDS011;27217;51.220;5.308;2023-11-19T08:47:03;37.83;;;5.28;;
41480;SDS011;27217;51.220;5.308;2023-11-19T08:49:29;22.65;;;3.70;;
41480;SDS011;27217;51.220;5.308;2023-11-19T08:51:55;35.95;;;4.72;;
41480;SDS011;27217;51.220;5.308;2023-11-19T08:54:21;39.95;;;5.72;;
41480;SDS011;27217;51.220;5.308;2023-11-19T08:56:48;35.55;;;4.70;;
41480;SDS011;27217;51.220;5.308;2023-11-19T08:59:13;37.05;;;5.43;;
41480;SDS011;27217;51.220;5.308;2023-11-19T09:01:40;39.08;;;6.00;;
41480;SDS011;27217;51.220;5.308;2023-11-19T09:04:06;37.17;;;5.28;;
41480;SDS011;27217;51.220;5.308;2023-11-19T09:06:32;47.72;;;6.03;;
41480;SDS011;27217;51.220;5.308;2023-11-19T09:08:57;36.20;;;4.22;;
41480;SDS011;27217;51.220;5.308;2023-11-19T09:11:27;40.88;;;5.75;;
41480;SDS011;27217;51.220;5.308;2023-11-19T09:13:53;42.72;;;5.70;;
41480;SDS011;27217;51.220;5.308;2023-11-19T09:16:19;32.95;;;4.53;;
41480;SDS011;27217;51.220;5.308;2023-11-19T09:18:44;37.97;;;5.68;;
41480;SDS011;27217;51.220;5.308;2023-11-19T09:21:10;33.67;;;6.32;;
41480;SDS011;27217;51.220;5.308;2023-11-19T09:23:37;32.45;;;5.63;;
41480;SDS011;27217;51.220;5.308;2023-11-19T09:26:04;36.85;;;5.55;;
41480;SDS011;27217;51.220;5.308;2023-11-19T09:28:30;34.22;;;6.10;;
41480;SDS011;27217;51.220;5.308;2023-11-19T09:30:56;32.78;;;4.88;;
41480;SDS011;27217;51.220;5.308;2023-11-19T09:33:21;27.42;;;4.13;;
41480;SDS011;27217;51.220;5.308;2023-11-19T09:35:47;25.15;;;4.93;;
41480;SDS011;27217;51.220;5.308;2023-11-19T09:38:14;24.55;;;3.55;;
41480;SDS011;27217;51.220;5.308;2023-11-19T09:40:40;31.17;;;4.47;;
41480;SDS011;27217;51.220;5.308;2023-11-19T09:43:07;42.80;;;5.32;;
41480;SDS011;27217;51.220;5.308;2023-11-19T09:45:36;34.55;;;5.35;;
41480;SDS011;27217;51.220;5.308;2023-11-19T09:48:14;22.15;;;3.03;;
41480;SDS011;27217;51.220;5.308;2023-11-19T09:50:46;35.30;;;5.55;;
41480;SDS011;27217;51.220;5.308;2023-11-19T09:53:14;33.07;;;4.60;;
41480;SDS011;27217;51.220;5.308;2023-11-19T09:55:43;25.42;;;4.85;;
41480;SDS011;27217;51.220;5.308;2023-11-19T09:58:10;29.63;;;4.40;;
41480;SDS011;27217;51.220;5.308;2023-11-19T10:00:40;31.63;;;3.95;;
41480;SDS011;27217;51.220;5.308;2023-11-19T10:03:07;25.98;;;4.18;;
41480;SDS011;27217;51.220;5.308;2023-11-19T10:05:35;27.98;;;4.72;;
41480;SDS011;27217;51.220;5.308;2023-11-19T10:08:03;30.60;;;3.80;;
41480;SDS011;27217;51.220;5.308;2023-11-19T10:10:30;33.17;;;3.70;;
41480;SDS011;27217;51.220;5.308;2023-11-19T10:12:55;24.83;;;4.80;;
41480;SDS011;27217;51.220;5.308;2023-11-19T10:15:22;35.70;;;3.95;;
41480;SDS011;27217;51.220;5.308;2023-11-19T10:17:52;33.63;;;4.88;;
41480;SDS011;27217;51.220;5.308;2023-11-19T10:20:21;22.52;;;3.72;;
41480;SDS011;27217;51.220;5.308;2023-11-19T10:22:46;36.75;;;5.10;;
41480;SDS011;27217;51.220;5.308;2023-11-19T10:25:21;25.38;;;3.50;;
41480;SDS011;27217;51.220;5.308;2023-11-19T10:27:50;24.70;;;3.58;;
41480;SDS011;27217;51.220;5.308;2023-11-19T10:30:21;26.02;;;4.53;;
41480;SDS011;27217;51.220;5.308;2023-11-19T10:35:37;27.08;;;3.40;;
41480;SDS011;27217;51.220;5.308;2023-11-19T10:38:19;22.95;;;4.70;;
41480;SDS011;27217;51.220;5.308;2023-11-19T10:40:45;25.80;;;4.32;;
41480;SDS011;27217;51.220;5.308;2023-11-19T10:43:12;47.05;;;5.72;;
41480;SDS011;27217;51.220;5.308;2023-11-19T10:45:38;18.00;;;3.38;;
41480;SDS011;27217;51.220;5.308;2023-11-19T10:48:04;21.33;;;4.03;;
41480;SDS011;27217;51.220;5.308;2023-11-19T10:50:38;44.05;;;4.78;;
41480;SDS011;27217;51.220;5.308;2023-11-19T10:53:06;34.25;;;5.07;;
41480;SDS011;27217;51.220;5.308;2023-11-19T10:55:34;24.85;;;4.22;;
41480;SDS011;27217;51.220;5.308;2023-11-19T10:58:06;22.40;;;4.97;;
41480;SDS011;27217;51.220;5.308;2023-11-19T11:00:45;30.52;;;3.65;;
41480;SDS011;27217;51.220;5.308;2023-11-19T11:03:22;27.65;;;4.75;;
41480;SDS011;27217;51.220;5.308;2023-11-19T11:05:51;11.68;;;2.72;;
41480;SDS011;27217;51.220;5.308;2023-11-19T11:08:18;17.52;;;3.10;;
41480;SDS011;27217;51.220;5.308;2023-11-19T11:10:46;22.92;;;4.55;;
41480;SDS011;27217;51.220;5.308;2023-11-19T11:13:20;28.65;;;5.28;;
41480;SDS011;27217;51.220;5.308;2023-11-19T11:15:48;24.67;;;4.32;;
41480;SDS011;27217;51.220;5.308;2023-11-19T11:18:15;28.02;;;4.97;;
41480;SDS011;27217;51.220;5.308;2023-11-19T11:20:43;31.85;;;5.35;;
41480;SDS011;27217;51.220;5.308;2023-11-19T11:28:58;27.67;;;4.97;;
41480;SDS011;27217;51.220;5.308;2023-11-19T11:39:49;32.60;;;3.40;;
41480;SDS011;27217;51.220;5.308;2023-11-19T11:48:20;30.98;;;5.30;;
41480;SDS011;27217;51.220;5.308;2023-11-19T11:50:21;32.72;;;4.65;;
41480;SDS011;27217;51.220;5.308;2023-11-19T11:55:35;32.53;;;4.28;;
41480;SDS011;27217;51.220;5.308;2023-11-19T11:58:05;28.98;;;4.63;;
41480;SDS011;27217;51.220;5.308;2023-11-19T12:00:38;32.30;;;4.82;;
41480;SDS011;27217;51.220;5.308;2023-11-19T12:03:05;18.13;;;4.03;;
41480;SDS011;27217;51.220;5.308;2023-11-19T12:05:32;25.08;;;4.32;;
41480;SDS011;27217;51.220;5.308;2023-11-19T12:08:02;22.27;;;4.15;;
41480;SDS011;27217;51.220;5.308;2023-11-19T12:10:32;21.17;;;4.47;;
41480;SDS011;27217;51.220;5.308;2023-11-19T12:13:10;20.15;;;4.32;;
41480;SDS011;27217;51.220;5.308;2023-11-19T12:16:19;24.13;;;3.80;;
41480;SDS011;27217;51.220;5.308;2023-11-19T12:18:26;22.35;;;3.38;;
41480;SDS011;27217;51.220;5.308;2023-11-19T12:20:53;23.77;;;3.58;;
41480;SDS011;27217;51.220;5.308;2023-11-19T12:23:19;25.45;;;4.18;;
41480;SDS011;27217;51.220;5.308;2023-11-19T12:25:45;29.80;;;3.80;;
41480;SDS011;27217;51.220;5.308;2023-11-19T12:28:12;29.25;;;4.10;;
41480;SDS011;27217;51.220;5.308;2023-11-19T12:30:38;24.33;;;3.33;;
41480;SDS011;27217;51.220;5.308;2023-11-19T12:33:10;25.23;;;3.72;;
41480;SDS011;27217;51.220;5.308;2023-11-19T12:35:40;27.13;;;4.65;;
41480;SDS011;27217;51.220;5.308;2023-11-19T12:38:07;30.77;;;4.80;;
41480;SDS011;27217;51.220;5.308;2023-11-19T12:40:34;22.23;;;3.67;;
41480;SDS011;27217;51.220;5.308;2023-11-19T12:43:00;30.30;;;3.42;;
41480;SDS011;27217;51.220;5.308;2023-11-19T12:45:34;25.65;;;3.08;;
41480;SDS011;27217;51.220;5.308;2023-11-19T12:48:04;26.77;;;3.33;;
41480;SDS011;27217;51.220;5.308;2023-11-19T12:50:49;19.25;;;2.95;;
41480;SDS011;27217;51.220;5.308;2023-11-19T12:53:27;30.95;;;3.95;;
41480;SDS011;27217;51.220;5.308;2023-11-19T12:55:54;29.08;;;4.20;;
41480;SDS011;27217;51.220;5.308;2023-11-19T13:01:05;19.33;;;4.13;;
41480;SDS011;27217;51.220;5.308;2023-11-19T13:06:05;26.83;;;4.53;;
41480;SDS011;27217;51.220;5.308;2023-11-19T13:08:49;31.77;;;4.25;;
41480;SDS011;27217;51.220;5.308;2023-11-19T13:11:30;31.67;;;4.18;;
41480;SDS011;27217;51.220;5.308;2023-11-19T13:14:00;0.03;;;0.03;;
41480;SDS011;27217;51.220;5.308;2023-11-19T13:16:30;0.70;;;0.70;;
41480;SDS011;27217;51.220;5.308;2023-11-19T13:18:57;1.80;;;1.38;;
41480;SDS011;27217;51.220;5.308;2023-11-19T13:21:25;0.57;;;0.55;;
41480;SDS011;27217;51.220;5.308;2023-11-19T13:23:50;0.00;;;0.00;;
41480;SDS011;27217;51.220;5.308;2023-11-19T13:26:16;0.88;;;0.43;;
41480;SDS011;27217;51.220;5.308;2023-11-19T13:28:42;13.32;;;4.30;;
41480;SDS011;27217;51.220;5.308;2023-11-19T13:31:08;0.10;;;0.10;;
41480;SDS011;27217;51.220;5.308;2023-11-19T13:33:35;2.20;;;1.38;;
41480;SDS011;27217;51.220;5.308;2023-11-19T13:36:01;3.00;;;1.45;;
41480;SDS011;27217;51.220;5.308;2023-11-19T13:38:34;15.75;;;2.72;;
41480;SDS011;27217;51.220;5.308;2023-11-19T13:41:01;0.73;;;0.73;;
41480;SDS011;27217;51.220;5.308;2023-11-19T13:43:27;0.10;;;0.10;;
41480;SDS011;27217;51.220;5.308;2023-11-19T13:45:56;2.10;;;1.83;;
41480;SDS011;27217;51.220;5.308;2023-11-19T13:48:23;0.60;;;0.52;;
41480;SDS011;27217;51.220;5.308;2023-11-19T13:50:49;1.27;;;1.15;;
41480;SDS011;27217;51.220;5.308;2023-11-19T13:53:15;0.00;;;0.00;;
41480;SDS011;27217;51.220;5.308;2023-11-19T13:55:42;0.00;;;0.00;;
41480;SDS011;27217;51.220;5.308;2023-11-19T13:58:08;0.03;;;0.03;;
41480;SDS011;27217;51.220;5.308;2023-11-19T14:00:34;0.10;;;0.10;;
41480;SDS011;27217;51.220;5.308;2023-11-19T14:03:00;0.00;;;0.00;;
41480;SDS011;27217;51.220;5.308;2023-11-19T14:05:25;0.43;;;0.43;;
41480;SDS011;27217;51.220;5.308;2023-11-19T14:07:54;2.17;;;1.38;;
41480;SDS011;27217;51.220;5.308;2023-11-19T14:10:21;0.90;;;0.85;;
41480;SDS011;27217;51.220;5.308;2023-11-19T14:12:48;0.38;;;0.38;;
41480;SDS011;27217;51.220;5.308;2023-11-19T14:15:15;1.15;;;0.70;;
41480;SDS011;27217;51.220;5.308;2023-11-19T14:17:44;0.47;;;0.47;;
41480;SDS011;27217;51.220;5.308;2023-11-19T14:20:10;1.65;;;0.60;;
41480;SDS011;27217;51.220;5.308;2023-11-19T14:22:40;0.00;;;0.00;;
41480;SDS011;27217;51.220;5.308;2023-11-19T14:25:07;0.95;;;0.95;;
41480;SDS011;27217;51.220;5.308;2023-11-19T14:27:39;3.83;;;1.20;;
41480;SDS011;27217;51.220;5.308;2023-11-19T14:30:06;1.00;;;0.90;;
41480;SDS011;27217;51.220;5.308;2023-11-19T14:32:35;0.28;;;0.28;;
41480;SDS011;27217;51.220;5.308;2023-11-19T14:35:04;0.17;;;0.17;;
41480;SDS011;27217;51.220;5.308;2023-11-19T14:37:31;0.00;;;0.00;;
41480;SDS011;27217;51.220;5.308;2023-11-19T14:40:00;2.63;;;0.65;;
41480;SDS011;27217;51.220;5.308;2023-11-19T14:42:29;0.10;;;0.10;;
41480;SDS011;27217;51.220;5.308;2023-11-19T14:44:55;0.10;;;0.10;;
41480;SDS011;27217;51.220;5.308;2023-11-19T14:47:21;2.10;;;0.70;;
41480;SDS011;27217;51.220;5.308;2023-11-19T14:49:47;0.30;;;0.30;;
41480;SDS011;27217;51.220;5.308;2023-11-19T14:52:12;0.32;;;0.32;;
41480;SDS011;27217;51.220;5.308;2023-11-19T14:54:38;0.00;;;0.00;;
41480;SDS011;27217;51.220;5.308;2023-11-19T14:57:05;0.43;;;0.43;;
41480;SDS011;27217;51.220;5.308;2023-11-19T14:59:33;0.20;;;0.20;;
41480;SDS011;27217;51.220;5.308;2023-11-19T15:02:01;0.30;;;0.30;;
41480;SDS011;27217;51.220;5.308;2023-11-19T15:04:27;0.17;;;0.17;;
41480;SDS011;27217;51.220;5.308;2023-11-19T15:06:56;1.77;;;0.57;;
41480;SDS011;27217;51.220;5.308;2023-11-19T15:09:22;0.15;;;0.15;;
41480;SDS011;27217;51.220;5.308;2023-11-19T15:11:47;1.48;;;1.23;;
41480;SDS011;27217;51.220;5.308;2023-11-19T15:14:13;0.20;;;0.20;;